createdAt,value
2022-08-17T00:02:26.650Z,0.00
2022-08-17T00:04:55.135Z,0.00
2022-08-17T00:07:22.419Z,0.10
2022-08-17T00:09:49.002Z,0.05
2022-08-17T00:12:42.177Z,0.10
2022-08-17T00:15:04.948Z,0.00
2022-08-17T00:17:31.552Z,0.10
2022-08-17T00:19:58.125Z,0.00
2022-08-17T00:22:32.279Z,0.03
2022-08-17T00:25:02.230Z,0.00
2022-08-17T00:27:28.818Z,0.00
2022-08-17T00:29:55.409Z,0.10
2022-08-17T00:33:14.626Z,0.00
2022-08-17T00:35:11.171Z,0.00
2022-08-17T00:37:37.853Z,0.00
2022-08-17T00:40:05.282Z,0.10
2022-08-17T00:42:33.672Z,0.05
2022-08-17T00:45:00.332Z,0.00
2022-08-17T00:47:26.928Z,0.00
2022-08-17T00:49:54.024Z,0.00
2022-08-17T00:52:24.920Z,0.00
2022-08-17T00:54:54.059Z,0.00
2022-08-17T00:57:30.087Z,0.10
2022-08-17T01:00:02.259Z,0.10
2022-08-17T01:02:41.206Z,0.00
2022-08-17T01:05:23.737Z,0.00
2022-08-17T01:07:52.747Z,0.00
2022-08-17T01:11:00.533Z,0.00
2022-08-17T01:13:15.245Z,0.00
2022-08-17T01:15:48.520Z,0.10
2022-08-17T01:18:15.956Z,0.10
2022-08-17T01:20:49.001Z,0.05
2022-08-17T01:23:19.871Z,0.03
2022-08-17T01:28:53.029Z,0.10
2022-08-17T01:31:08.498Z,0.00
2022-08-17T01:33:36.133Z,0.10
2022-08-17T01:36:04.318Z,0.00
2022-08-17T01:38:31.976Z,0.10
2022-08-17T01:41:07.518Z,0.10
2022-08-17T01:43:49.293Z,0.10
2022-08-17T01:46:21.923Z,0.10
2022-08-17T01:48:48.751Z,0.00
2022-08-17T01:51:16.051Z,0.00
2022-08-17T01:53:47.509Z,0.03
2022-08-17T01:56:18.271Z,0.10
2022-08-17T01:58:45.708Z,0.10
2022-08-17T02:01:14.752Z,0.00
2022-08-17T02:03:42.058Z,0.00
2022-08-17T02:06:27.621Z,0.03
2022-08-17T02:09:02.755Z,0.00
2022-08-17T02:11:33.255Z,0.00
2022-08-17T02:14:03.696Z,0.05
2022-08-17T02:16:37.047Z,0.00
2022-08-17T02:19:07.179Z,0.08
2022-08-17T02:21:34.088Z,0.00
2022-08-17T02:24:00.783Z,0.10
2022-08-17T02:26:27.471Z,0.00
2022-08-17T02:28:54.336Z,0.08
2022-08-17T02:31:21.365Z,0.10
2022-08-17T02:33:56.564Z,0.00
2022-08-17T02:36:31.317Z,0.00
2022-08-17T02:38:58.743Z,0.00
2022-08-17T02:41:25.545Z,0.00
2022-08-17T02:43:53.205Z,0.08
2022-08-17T02:46:19.802Z,0.00
2022-08-17T02:48:46.548Z,0.03
2022-08-17T02:51:13.163Z,0.10
2022-08-17T02:53:39.741Z,0.00
2022-08-17T02:56:06.682Z,0.00
2022-08-17T02:58:34.920Z,0.10
2022-08-17T03:01:06.690Z,0.10
2022-08-17T03:03:34.754Z,0.10
2022-08-17T03:06:02.253Z,0.00
2022-08-17T03:08:30.260Z,0.00
2022-08-17T03:10:57.269Z,0.00
2022-08-17T03:13:24.190Z,0.00
2022-08-17T03:15:50.963Z,0.10
2022-08-17T03:18:24.730Z,0.00
2022-08-17T03:20:54.850Z,0.00
2022-08-17T03:23:24.201Z,0.00
2022-08-17T03:25:53.760Z,0.10
2022-08-17T03:28:21.413Z,0.00
2022-08-17T03:30:48.162Z,0.00
2022-08-17T03:33:14.828Z,0.00
2022-08-17T03:35:42.141Z,0.03
2022-08-17T03:38:10.734Z,0.00
2022-08-17T03:40:57.892Z,0.00
2022-08-17T03:43:25.590Z,0.00
2022-08-17T03:46:27.624Z,0.00
2022-08-17T03:49:15.727Z,0.10
2022-08-17T03:52:00.967Z,0.03
2022-08-17T03:54:46.080Z,0.03
2022-08-17T03:57:13.308Z,0.00
2022-08-17T03:59:40.899Z,0.00
2022-08-17T04:02:15.662Z,0.00
2022-08-17T04:04:42.724Z,0.00
2022-08-17T04:07:09.890Z,0.10
2022-08-17T04:09:36.672Z,0.00
2022-08-17T04:12:04.984Z,0.00
2022-08-17T04:14:37.875Z,0.10
2022-08-17T04:17:20.296Z,0.08
2022-08-17T04:19:47.051Z,0.10
2022-08-17T04:22:32.137Z,0.00
2022-08-17T04:25:07.612Z,0.10
2022-08-17T04:27:34.308Z,0.10
2022-08-17T04:30:01.694Z,0.10
2022-08-17T04:33:05.010Z,0.03
2022-08-17T04:35:19.073Z,0.10
2022-08-17T04:37:45.764Z,0.10
2022-08-17T04:40:31.110Z,0.10
2022-08-17T04:43:02.861Z,0.10
2022-08-17T04:45:31.998Z,0.00
2022-08-17T04:48:00.357Z,0.10
2022-08-17T04:50:27.633Z,0.00
2022-08-17T04:52:54.359Z,0.10
2022-08-17T04:55:21.380Z,0.10
2022-08-17T04:57:47.992Z,0.00
2022-08-17T05:00:14.850Z,0.00
2022-08-17T05:02:50.604Z,0.00
2022-08-17T05:05:31.170Z,0.10
2022-08-17T05:08:01.003Z,0.10
2022-08-17T05:10:31.155Z,0.00
2022-08-17T05:12:59.830Z,0.10
2022-08-17T05:15:28.082Z,0.05
2022-08-17T05:17:55.215Z,0.10
2022-08-17T05:20:22.786Z,0.10
2022-08-17T05:22:55.597Z,0.00
2022-08-17T05:25:28.179Z,0.10
2022-08-17T05:27:58.985Z,0.10
2022-08-17T05:30:27.695Z,0.05
2022-08-17T05:33:04.792Z,0.10
2022-08-17T05:35:34.027Z,0.00
2022-08-17T05:38:00.959Z,0.10
2022-08-17T05:40:28.376Z,0.10
2022-08-17T05:43:16.538Z,0.10
2022-08-17T05:46:03.398Z,0.10
2022-08-17T05:48:40.035Z,0.10
2022-08-17T05:51:28.333Z,0.10
2022-08-17T05:54:09.827Z,0.10
2022-08-17T05:57:20.894Z,0.10
2022-08-17T05:59:55.778Z,0.10
2022-08-17T06:02:22.298Z,0.10
2022-08-17T06:05:09.860Z,0.10
2022-08-17T06:07:52.565Z,0.00
2022-08-17T06:10:46.555Z,0.10
2022-08-17T06:13:30.221Z,0.10
2022-08-17T06:16:04.632Z,0.20
2022-08-17T06:19:01.140Z,0.30
2022-08-17T06:21:33.821Z,0.40
2022-08-17T06:24:27.515Z,0.47
2022-08-17T06:26:57.466Z,0.52
2022-08-17T06:30:02.483Z,0.50
2022-08-17T06:32:29.622Z,0.47
2022-08-17T06:35:00.475Z,0.50
2022-08-17T06:40:07.440Z,0.60
2022-08-17T06:43:20.075Z,0.65
2022-08-17T06:46:17.028Z,0.80
2022-08-17T06:48:47.258Z,0.80
2022-08-17T06:52:00.717Z,0.90
2022-08-17T06:54:38.914Z,1.00
2022-08-17T06:57:10.481Z,1.00
2022-08-17T07:00:07.109Z,1.00
2022-08-17T07:03:02.460Z,1.10
2022-08-17T07:05:54.446Z,1.08
2022-08-17T07:08:38.379Z,1.13
2022-08-17T07:11:14.418Z,1.20
2022-08-17T07:13:57.462Z,1.10
2022-08-17T07:17:02.768Z,1.20
2022-08-17T07:19:33.053Z,1.30
2022-08-17T07:22:14.264Z,1.30
2022-08-17T07:24:49.015Z,1.20
2022-08-17T07:27:27.588Z,1.40
2022-08-17T07:30:04.697Z,1.40
2022-08-17T07:32:45.946Z,1.45
2022-08-17T07:35:37.629Z,1.33
2022-08-17T07:38:25.748Z,1.48
2022-08-17T07:41:05.351Z,1.20
2022-08-17T07:43:40.884Z,0.93
2022-08-17T07:46:37.916Z,1.10
2022-08-17T07:49:07.460Z,1.45
2022-08-17T07:51:39.845Z,1.13
2022-08-17T07:54:15.508Z,0.93
2022-08-17T07:56:53.113Z,1.00
2022-08-17T07:59:33.460Z,1.17
2022-08-17T08:02:05.983Z,1.35
2022-08-17T08:05:02.106Z,1.30
2022-08-17T08:07:38.319Z,1.45
2022-08-17T08:10:13.126Z,1.40
2022-08-17T08:12:48.022Z,1.30
2022-08-17T08:15:26.119Z,1.27
2022-08-17T08:17:56.463Z,1.45
2022-08-17T08:20:51.660Z,1.42
2022-08-17T08:23:42.962Z,1.45
2022-08-17T08:26:28.354Z,1.65
2022-08-17T08:29:11.355Z,1.55
2022-08-17T08:31:57.654Z,1.70
2022-08-17T08:34:58.909Z,1.90
2022-08-17T08:37:37.863Z,1.90
2022-08-17T08:40:34.889Z,1.80
2022-08-17T08:43:16.436Z,1.80
2022-08-17T08:46:01.720Z,1.52
2022-08-17T08:48:56.895Z,1.50
2022-08-17T08:51:20.181Z,1.50
2022-08-17T08:53:58.520Z,1.67
2022-08-17T08:56:35.665Z,1.80
2022-08-17T08:59:17.248Z,2.08
2022-08-17T09:02:03.528Z,1.70
2022-08-17T09:05:12.749Z,1.83
2022-08-17T09:08:05.711Z,1.60
2022-08-17T09:10:49.653Z,1.50
2022-08-17T09:13:46.359Z,1.70
2022-08-17T09:16:30.731Z,1.30
2022-08-17T09:19:05.006Z,1.40
2022-08-17T09:21:48.446Z,1.33
2022-08-17T09:24:43.728Z,1.40
2022-08-17T09:27:20.718Z,1.30
2022-08-17T09:29:57.890Z,1.50
2022-08-17T09:32:49.905Z,0.70
2022-08-17T09:35:19.839Z,1.40
2022-08-17T09:38:01.671Z,1.20
2022-08-17T09:40:43.434Z,1.00
2022-08-17T09:43:16.666Z,0.80
2022-08-17T09:45:52.045Z,0.90
2022-08-17T09:48:24.500Z,1.00
2022-08-17T09:51:30.326Z,1.20
2022-08-17T09:54:14.722Z,1.40
2022-08-17T09:57:28.422Z,1.20
2022-08-17T10:00:16.724Z,1.20
2022-08-17T10:02:55.665Z,1.08
2022-08-17T10:05:46.552Z,0.85
2022-08-17T10:08:25.753Z,0.85
2022-08-17T10:11:05.513Z,0.80
2022-08-17T10:13:41.285Z,0.90
2022-08-17T10:16:30.426Z,0.90
2022-08-17T10:19:05.315Z,0.98
2022-08-17T10:22:01.050Z,0.80
2022-08-17T10:25:22.115Z,0.90
2022-08-17T10:27:52.959Z,0.75
2022-08-17T10:30:23.668Z,0.70
2022-08-17T10:32:55.326Z,0.70
2022-08-17T10:35:30.172Z,0.80
2022-08-17T10:37:56.702Z,0.80
2022-08-17T10:40:31.075Z,0.70
2022-08-17T10:43:22.786Z,0.70
2022-08-17T10:46:30.877Z,0.80
2022-08-17T10:49:18.515Z,0.70
2022-08-17T10:51:48.204Z,0.70
2022-08-17T10:54:39.352Z,0.38
2022-08-17T10:57:33.913Z,0.30
2022-08-17T11:00:01.662Z,0.60
2022-08-17T11:02:50.028Z,0.60
2022-08-17T11:05:33.041Z,0.52
2022-08-17T11:08:24.471Z,0.60
2022-08-17T11:11:04.952Z,0.50
2022-08-17T11:14:04.620Z,0.57
2022-08-17T11:16:50.543Z,0.60
2022-08-17T11:19:23.239Z,0.50
2022-08-17T11:21:52.710Z,0.52
2022-08-17T11:24:44.751Z,0.40
2022-08-17T11:27:26.649Z,0.50
2022-08-17T11:30:01.856Z,0.50
2022-08-17T11:32:37.286Z,0.50
2022-08-17T11:35:21.458Z,0.40
2022-08-17T11:38:15.863Z,0.43
2022-08-17T11:41:10.401Z,0.40
2022-08-17T11:44:25.360Z,0.40
2022-08-17T11:47:17.915Z,0.40
2022-08-17T11:50:28.136Z,0.50
2022-08-17T11:52:55.089Z,0.30
2022-08-17T11:55:38.201Z,0.40
2022-08-17T11:58:26.088Z,0.38
2022-08-17T12:00:56.578Z,0.30
2022-08-17T12:06:04.348Z,0.20
2022-08-17T12:08:33.910Z,0.20
2022-08-17T12:11:07.417Z,0.20
2022-08-17T12:13:44.657Z,0.30
2022-08-17T12:16:17.558Z,0.22
2022-08-17T12:18:59.622Z,0.22
2022-08-17T12:21:51.411Z,0.20
2022-08-17T12:24:38.280Z,0.10
2022-08-17T12:27:07.244Z,0.10
2022-08-17T12:29:38.708Z,0.20
2022-08-17T12:32:07.132Z,0.20
2022-08-17T12:34:42.658Z,0.20
2022-08-17T12:37:20.599Z,0.10
2022-08-17T12:39:58.784Z,0.20
2022-08-17T12:42:31.972Z,0.10
2022-08-17T12:44:58.820Z,0.20
2022-08-17T12:47:26.371Z,0.20
2022-08-17T12:50:28.495Z,0.10
2022-08-17T12:52:59.732Z,0.10
2022-08-17T12:55:29.334Z,0.15
2022-08-17T12:57:59.793Z,0.20
2022-08-17T13:00:42.905Z,0.17
2022-08-17T13:03:23.097Z,0.15
2022-08-17T13:05:52.772Z,0.10
2022-08-17T13:08:39.138Z,0.17
2022-08-17T13:11:18.548Z,0.20
2022-08-17T13:13:54.750Z,0.15
2022-08-17T13:16:24.886Z,0.20
2022-08-17T13:19:05.830Z,0.17
2022-08-17T13:21:33.620Z,0.20
2022-08-17T13:24:04.338Z,0.15
2022-08-17T13:26:35.303Z,0.10
2022-08-17T13:29:06.302Z,0.20
2022-08-17T13:31:51.811Z,0.10
2022-08-17T13:34:26.728Z,0.10
2022-08-17T13:37:32.519Z,0.10
2022-08-17T13:40:21.860Z,0.10
2022-08-17T13:42:53.595Z,0.20
2022-08-17T13:45:35.368Z,0.10
2022-08-17T13:48:11.834Z,0.10
2022-08-17T13:50:52.350Z,0.10
2022-08-17T13:53:25.324Z,0.10
2022-08-17T13:55:55.349Z,0.10
2022-08-17T13:58:26.067Z,0.10
2022-08-17T14:00:53.122Z,0.15
2022-08-17T14:03:20.548Z,0.10
2022-08-17T14:05:50.083Z,0.10
2022-08-17T14:08:19.884Z,0.10
2022-08-17T14:10:57.492Z,0.10
2022-08-17T14:13:24.189Z,0.10
2022-08-17T14:15:55.686Z,0.10
2022-08-17T14:18:35.665Z,0.10
2022-08-17T14:21:11.137Z,0.10
2022-08-17T14:23:37.837Z,0.10
2022-08-17T14:26:04.861Z,0.10
2022-08-17T14:28:32.152Z,0.10
2022-08-17T14:31:00.374Z,0.10
2022-08-17T14:33:28.847Z,0.10
2022-08-17T14:35:55.943Z,0.10
2022-08-17T14:38:22.651Z,0.10
2022-08-17T14:40:49.411Z,0.10
2022-08-17T14:43:16.026Z,0.20
2022-08-17T14:45:43.641Z,0.10
2022-08-17T14:48:11.059Z,0.20
2022-08-17T14:50:41.583Z,0.10
2022-08-17T14:53:11.050Z,0.10
2022-08-17T14:55:40.578Z,0.10
2022-08-17T14:58:08.804Z,0.10
2022-08-17T15:00:35.507Z,0.10
2022-08-17T15:03:03.117Z,0.10
2022-08-17T15:05:33.874Z,0.15
2022-08-17T15:08:01.752Z,0.10
2022-08-17T15:10:29.529Z,0.10
2022-08-17T15:12:57.856Z,0.10
2022-08-17T15:15:25.166Z,0.10
2022-08-17T15:17:51.814Z,0.10
2022-08-17T15:20:21.393Z,0.10
2022-08-17T15:22:49.823Z,0.10
2022-08-17T15:25:19.009Z,0.10
2022-08-17T15:27:45.750Z,0.10
2022-08-17T15:30:13.329Z,0.10
2022-08-17T15:32:45.769Z,0.10
2022-08-17T15:35:26.870Z,0.10
2022-08-17T15:37:55.674Z,0.10
2022-08-17T15:40:22.248Z,0.10
2022-08-17T15:42:50.401Z,0.10
2022-08-17T15:45:22.585Z,0.10
2022-08-17T15:47:49.391Z,0.10
2022-08-17T15:50:16.185Z,0.10
2022-08-17T15:52:44.918Z,0.10
2022-08-17T15:55:13.723Z,0.10
2022-08-17T15:57:40.796Z,0.10
2022-08-17T16:00:08.858Z,0.10
2022-08-17T16:03:44.961Z,0.10
2022-08-17T16:05:27.217Z,0.10
2022-08-17T16:07:55.237Z,0.10
2022-08-17T16:10:22.901Z,0.10
2022-08-17T16:13:01.940Z,0.10
2022-08-17T16:15:31.181Z,0.10
2022-08-17T16:17:57.763Z,0.10
2022-08-17T16:20:24.350Z,0.10
2022-08-17T16:22:51.220Z,0.10
2022-08-17T16:25:47.153Z,0.10
2022-08-17T16:28:10.881Z,0.10
2022-08-17T16:30:38.293Z,0.10
2022-08-17T16:33:05.878Z,0.10
2022-08-17T16:35:32.578Z,0.10
2022-08-17T16:37:59.223Z,0.10
2022-08-17T16:40:28.161Z,0.10
2022-08-17T16:42:55.971Z,0.10
2022-08-17T16:45:28.182Z,0.10
2022-08-17T16:48:01.534Z,0.00
2022-08-17T16:50:28.205Z,0.10
2022-08-17T16:53:17.900Z,0.10
2022-08-17T16:55:49.423Z,0.10
2022-08-17T16:58:16.119Z,0.10
2022-08-17T17:00:44.254Z,0.10
2022-08-17T17:03:20.012Z,0.10
2022-08-17T17:06:07.211Z,0.10
2022-08-17T17:08:46.687Z,0.10
2022-08-17T17:11:21.610Z,0.10
2022-08-17T17:13:57.886Z,0.10
2022-08-17T17:16:36.222Z,0.10
2022-08-17T17:19:35.204Z,0.10
2022-08-17T17:22:16.527Z,0.10
2022-08-17T17:25:12.125Z,0.00
2022-08-17T17:27:42.887Z,0.10
2022-08-17T17:30:15.133Z,0.00
2022-08-17T17:32:41.719Z,0.10
2022-08-17T17:35:11.485Z,0.10
2022-08-17T17:37:40.432Z,0.00
2022-08-17T17:40:14.521Z,0.00
2022-08-17T17:42:43.919Z,0.10
2022-08-17T17:45:20.372Z,0.00
2022-08-17T17:47:47.698Z,0.10
2022-08-17T17:50:17.466Z,0.00
2022-08-17T17:52:51.252Z,0.00
2022-08-17T17:55:45.689Z,0.10
2022-08-17T17:58:22.767Z,0.00
2022-08-17T18:01:08.427Z,0.00
2022-08-17T18:03:53.904Z,0.10
2022-08-17T18:06:35.514Z,0.10
2022-08-17T18:09:19.416Z,0.00
2022-08-17T18:11:53.943Z,0.00
2022-08-17T18:14:50.947Z,0.10
2022-08-17T18:17:18.330Z,0.10
2022-08-17T18:19:45.306Z,0.00
2022-08-17T18:22:19.458Z,0.10
2022-08-17T18:24:49.547Z,0.00
2022-08-17T18:27:40.791Z,0.10
2022-08-17T18:30:13.152Z,0.00
2022-08-17T18:32:42.490Z,0.00
2022-08-17T18:35:09.131Z,0.00
2022-08-17T18:37:42.712Z,0.10
2022-08-17T18:40:19.575Z,0.00
2022-08-17T18:43:08.390Z,0.10
2022-08-17T18:45:48.168Z,0.00
2022-08-17T18:48:37.942Z,0.10
2022-08-17T18:51:40.952Z,0.10
2022-08-17T18:54:22.374Z,0.00
2022-08-17T18:56:51.807Z,0.00
2022-08-17T18:59:27.544Z,0.00
2022-08-17T19:02:02.031Z,0.05
2022-08-17T19:04:39.719Z,0.00
2022-08-17T19:07:11.025Z,0.00
2022-08-17T19:09:47.638Z,0.00
2022-08-17T19:12:33.286Z,0.00
2022-08-17T19:15:00.951Z,0.00
2022-08-17T19:17:35.438Z,0.00
2022-08-17T19:20:20.054Z,0.00
2022-08-17T19:23:11.369Z,0.05
2022-08-17T19:25:46.545Z,0.00
2022-08-17T19:28:22.562Z,0.00
2022-08-17T19:30:54.913Z,0.10
2022-08-17T19:33:21.794Z,0.00
2022-08-17T19:35:57.507Z,0.03
2022-08-17T19:38:42.462Z,0.00
2022-08-17T19:41:38.572Z,0.10
2022-08-17T19:44:14.995Z,0.03
2022-08-17T19:46:55.940Z,0.10
2022-08-17T19:49:33.461Z,0.00
2022-08-17T19:52:32.602Z,0.00
2022-08-17T19:55:09.719Z,0.10
2022-08-17T19:58:02.720Z,0.00
2022-08-17T20:00:33.711Z,0.00
2022-08-17T20:03:08.057Z,0.00
2022-08-17T20:06:10.945Z,0.08
2022-08-17T20:08:39.518Z,0.00
2022-08-17T20:11:10.709Z,0.00
2022-08-17T20:13:43.550Z,0.10
2022-08-17T20:16:11.247Z,0.00
2022-08-17T20:18:48.808Z,0.00
2022-08-17T20:21:41.990Z,0.00
2022-08-17T20:24:21.866Z,0.00
2022-08-17T20:26:58.183Z,0.10
2022-08-17T20:29:40.233Z,0.00
2022-08-17T20:32:18.824Z,0.00
2022-08-17T20:34:47.874Z,0.03
2022-08-17T20:37:14.551Z,0.03
2022-08-17T20:39:45.948Z,0.05
2022-08-17T20:42:15.335Z,0.00
2022-08-17T20:44:43.274Z,0.10
2022-08-17T20:47:35.689Z,0.00
2022-08-17T20:50:07.158Z,0.00
2022-08-17T20:52:56.312Z,0.00
2022-08-17T20:55:35.438Z,0.10
2022-08-17T20:58:24.693Z,0.00
2022-08-17T21:00:57.397Z,0.00
2022-08-17T21:03:24.148Z,0.10
2022-08-17T21:06:17.604Z,0.10
2022-08-17T21:08:45.868Z,0.10
2022-08-17T21:11:57.080Z,0.00
2022-08-17T21:14:32.800Z,0.00
2022-08-17T21:17:18.502Z,0.00
2022-08-17T21:20:22.030Z,0.00
2022-08-17T21:22:58.569Z,0.10
2022-08-17T21:25:43.195Z,0.10
2022-08-17T21:28:12.844Z,0.10
2022-08-17T21:30:39.409Z,0.10
2022-08-17T21:33:27.144Z,0.00
2022-08-17T21:35:59.554Z,0.10
2022-08-17T21:38:38.034Z,0.10
2022-08-17T21:41:04.882Z,0.00
2022-08-17T21:43:37.489Z,0.05
2022-08-17T21:46:10.808Z,0.00
2022-08-17T21:48:43.071Z,0.00
2022-08-17T21:51:14.969Z,0.00
2022-08-17T21:53:51.433Z,0.03
2022-08-17T21:56:24.898Z,0.08
2022-08-17T21:58:59.583Z,0.00
2022-08-17T22:01:30.173Z,0.00
2022-08-17T22:03:58.680Z,0.10
2022-08-17T22:06:52.647Z,0.10
2022-08-17T22:09:31.937Z,0.05
2022-08-17T22:12:12.372Z,0.00
2022-08-17T22:14:53.272Z,0.00
2022-08-17T22:17:30.189Z,0.00
2022-08-17T22:20:14.480Z,0.00
2022-08-17T22:23:08.747Z,0.10
2022-08-17T22:25:38.330Z,0.10
2022-08-17T22:28:08.152Z,0.00
2022-08-17T22:30:58.749Z,0.00
2022-08-17T22:33:42.375Z,0.10
2022-08-17T22:36:24.656Z,0.10
2022-08-17T22:38:54.796Z,0.00
2022-08-17T22:41:35.847Z,0.10
2022-08-17T22:44:14.084Z,0.00
2022-08-17T22:46:56.157Z,0.00
2022-08-17T22:49:34.170Z,0.00
2022-08-17T22:52:32.152Z,0.00
2022-08-17T22:55:34.887Z,0.00
2022-08-17T22:58:28.022Z,0.10
2022-08-17T23:00:55.065Z,0.10
2022-08-17T23:03:27.993Z,0.08
2022-08-17T23:06:11.870Z,0.00
2022-08-17T23:08:59.537Z,0.00
2022-08-17T23:11:42.872Z,0.00
2022-08-17T23:14:19.089Z,0.10
2022-08-17T23:16:46.297Z,0.00
2022-08-17T23:19:16.469Z,0.10
2022-08-17T23:21:46.668Z,0.10
2022-08-17T23:24:23.482Z,0.10
2022-08-17T23:26:50.661Z,0.00
2022-08-17T23:29:17.297Z,0.10
2022-08-17T23:31:43.919Z,0.10
2022-08-17T23:34:13.331Z,0.10
2022-08-17T23:36:40.331Z,0.05
2022-08-17T23:39:07.574Z,0.10
2022-08-17T23:41:38.987Z,0.00
2022-08-17T23:44:06.997Z,0.10
2022-08-17T23:46:34.634Z,0.03
2022-08-17T23:49:01.473Z,0.10
2022-08-17T23:51:31.643Z,0.10
2022-08-17T23:54:07.967Z,0.00
2022-08-17T23:56:41.927Z,0.00
2022-08-17T23:59:08.521Z,0.10
